Time;durP1;ratioP1;P1;durP2;ratioP2;P2;SDS_P1;SDS_P2;PMS_P1;PMS_P2;Temp;Humidity;BMP_temperature;BMP_pressure;BME280_temperature;BME280_humidity;BME280_pressure;Samples;Min_cycle;Max_cycle;Signal;HPM_P1;HPM_P2
2023/06/19 00:01:03;;;;;;;3.97;3.58;;;;;;;27.61;37.87;100834.16;5039939;28;20136;-32
2023/06/19 00:03:30;;;;;;;4.60;3.40;;;;;;;27.61;38.18;100839.63;5040833;28;20445;-32
2023/06/19 00:05:56;;;;;;;3.90;3.50;;;;;;;27.60;38.39;100833.34;5039522;28;20368;-32
2023/06/19 00:08:23;;;;;;;5.03;3.47;;;;;;;27.59;37.85;100842.56;5041156;28;20045;-32
2023/06/19 00:10:50;;;;;;;4.82;3.72;;;;;;;27.60;38.44;100843.41;5037854;28;20501;-32
2023/06/19 00:13:16;;;;;;;4.50;3.50;;;;;;;27.59;37.54;100845.28;5038063;28;20065;-32
2023/06/19 00:15:43;;;;;;;3.67;3.25;;;;;;;27.58;38.24;100840.91;5038833;28;20076;-32
2023/06/19 00:18:10;;;;;;;3.67;3.28;;;;;;;27.59;38.55;100844.47;5070630;28;20341;-32
2023/06/19 00:20:39;;;;;;;3.58;3.13;;;;;;;27.57;38.37;100844.66;5036493;28;20056;-31
2023/06/19 00:23:10;;;;;;;5.40;3.53;;;;;;;27.56;38.11;100841.09;5038119;28;20107;-32
2023/06/19 00:25:37;;;;;;;7.13;3.78;;;;;;;27.55;38.41;100839.44;5039866;28;20048;-31
2023/06/19 00:28:03;;;;;;;4.25;3.55;;;;;;;27.54;38.44;100840.50;5036987;28;20056;-32
2023/06/19 00:30:32;;;;;;;4.72;3.42;;;;;;;27.54;38.33;100837.78;5034894;28;20279;-33
2023/06/19 00:33:03;;;;;;;4.05;3.45;;;;;;;27.53;37.94;100841.53;5037682;28;20656;-33
2023/06/19 00:35:29;;;;;;;5.15;3.92;;;;;;;27.52;38.47;100848.03;5035650;28;20049;-33
2023/06/19 00:38:00;;;;;;;4.93;3.67;;;;;;;27.52;37.98;100850.75;5036870;28;20696;-32
2023/06/19 00:40:29;;;;;;;3.90;3.30;;;;;;;27.50;38.17;100852.88;5035004;28;20067;-33
2023/06/19 00:42:56;;;;;;;4.25;3.85;;;;;;;27.51;38.48;100857.25;5040190;28;20099;-33
2023/06/19 00:45:26;;;;;;;5.65;3.63;;;;;;;27.50;38.50;100855.59;5033389;28;20077;-34
2023/06/19 00:47:54;;;;;;;4.07;3.50;;;;;;;27.48;38.28;100854.97;5037990;28;20053;-33
2023/06/19 00:50:22;;;;;;;5.05;3.67;;;;;;;27.48;38.51;100854.97;5046555;28;20057;-33
2023/06/19 00:52:49;;;;;;;3.90;3.47;;;;;;;27.47;38.39;100850.59;5047541;28;20057;-33
2023/06/19 00:55:17;;;;;;;4.15;3.45;;;;;;;27.46;38.39;100840.75;5045727;28;20093;-33
2023/06/19 00:57:43;;;;;;;5.15;3.67;;;;;;;27.44;38.59;100842.84;5047519;28;20049;-33
2023/06/19 01:00:12;;;;;;;4.28;3.10;;;;;;;27.44;38.55;100863.78;5049431;28;20399;-32
2023/06/19 01:02:39;;;;;;;3.80;3.20;;;;;;;27.40;38.20;100870.72;5038290;28;20124;-33
2023/06/19 01:05:07;;;;;;;3.67;2.83;;;;;;;27.39;38.52;100869.06;5030226;28;20140;-33
2023/06/19 01:07:58;;;;;;;3.67;3.05;;;;;;;27.35;39.12;100871.38;5040350;28;20060;-33
2023/06/19 01:10:28;;;;;;;5.45;3.10;;;;;;;27.37;38.84;100879.31;5041243;28;20084;-33
2023/06/19 01:13:00;;;;;;;4.22;3.20;;;;;;;27.35;39.07;100882.25;5045516;28;20110;-32
2023/06/19 01:15:29;;;;;;;4.38;3.22;;;;;;;27.34;38.74;100877.00;5043170;28;20110;-32
2023/06/19 01:17:58;;;;;;;5.72;3.30;;;;;;;27.34;38.77;100888.75;5036007;28;20088;-33
2023/06/19 01:20:25;;;;;;;3.20;2.88;;;;;;;27.33;38.96;100895.22;5030949;28;20425;-33
2023/06/19 01:22:56;;;;;;;4.10;2.78;;;;;;;27.32;39.03;100896.28;5035466;28;20345;-33
2023/06/19 01:25:24;;;;;;;5.25;3.08;;;;;;;27.31;38.92;100894.63;5033973;28;20099;-32
2023/06/19 01:27:51;;;;;;;4.10;3.30;;;;;;;27.30;39.19;100887.50;5034119;28;20046;-33
2023/06/19 01:30:19;;;;;;;3.33;2.75;;;;;;;27.29;39.31;100892.09;5033490;28;20084;-33
2023/06/19 01:33:12;;;;;;;3.97;2.97;;;;;;;27.28;39.56;100905.94;5036410;28;20137;-33
2023/06/19 01:35:42;;;;;;;4.55;2.60;;;;;;;27.26;39.32;100892.53;5033027;28;20107;-31
2023/06/19 01:38:10;;;;;;;3.17;2.75;;;;;;;27.25;39.61;100895.47;5033839;28;20385;-32
2023/06/19 01:40:39;;;;;;;3.33;2.60;;;;;;;27.25;39.46;100896.28;5034064;28;20053;-31
2023/06/19 01:43:08;;;;;;;2.55;2.25;;;;;;;27.24;39.75;100893.78;5036152;28;20057;-32
2023/06/19 01:45:34;;;;;;;3.15;2.60;;;;;;;27.23;39.38;100895.69;5035040;28;20452;-33
2023/06/19 01:48:01;;;;;;;2.85;2.60;;;;;;;27.23;39.67;100892.13;5037288;28;20057;-33
2023/06/19 01:50:28;;;;;;;2.97;2.30;;;;;;;27.22;39.64;100894.03;5044266;28;20112;-33
2023/06/19 01:52:55;;;;;;;2.60;2.10;;;;;;;27.22;39.58;100887.75;5036872;28;20339;-33
2023/06/19 01:55:21;;;;;;;3.92;2.45;;;;;;;27.21;39.81;100889.59;5034123;28;20045;-33
2023/06/19 01:57:48;;;;;;;3.00;2.30;;;;;;;27.20;40.03;100887.94;5034942;28;20049;-33
2023/06/19 02:00:15;;;;;;;3.83;2.28;;;;;;;27.20;40.26;100887.94;5036567;28;20053;-33
2023/06/19 02:02:41;;;;;;;2.95;2.40;;;;;;;27.18;40.11;100898.22;5037193;28;20123;-32
2023/06/19 02:05:09;;;;;;;3.40;2.20;;;;;;;27.18;40.42;100897.38;5034586;28;20046;-33
2023/06/19 02:07:35;;;;;;;2.67;2.20;;;;;;;27.17;40.14;100895.69;5068133;28;20041;-33
2023/06/19 02:10:02;;;;;;;3.47;2.00;;;;;;;27.18;40.08;100895.50;5040465;28;20057;-32
2023/06/19 02:12:29;;;;;;;3.35;2.42;;;;;;;27.17;40.27;100891.09;5041974;28;20091;-32
2023/06/19 02:14:56;;;;;;;3.03;2.40;;;;;;;27.17;40.06;100898.41;5044717;28;20053;-33
2023/06/19 02:17:22;;;;;;;5.25;2.40;;;;;;;27.16;40.24;100894.84;5043956;28;20084;-33
2023/06/19 02:19:49;;;;;;;5.20;2.17;;;;;;;27.16;40.04;100896.75;5043826;28;20420;-33
2023/06/19 02:22:17;;;;;;;3.65;2.15;;;;;;;27.15;40.15;100900.53;5043560;28;20140;-33
2023/06/19 02:24:44;;;;;;;3.85;2.65;;;;;;;27.15;40.17;100914.13;5045372;28;20141;-32
2023/06/19 02:27:11;;;;;;;3.20;2.50;;;;;;;27.14;40.18;100910.56;5042724;28;20087;-33
2023/06/19 02:29:37;;;;;;;2.83;2.13;;;;;;;27.13;40.51;100903.44;5045531;28;20482;-33
2023/06/19 02:32:04;;;;;;;2.60;2.15;;;;;;;27.13;40.87;100902.59;5043127;28;20053;-33
2023/06/19 02:34:31;;;;;;;3.83;2.10;;;;;;;27.11;40.44;100911.00;5040832;28;20445;-33
2023/06/19 02:36:58;;;;;;;4.47;2.13;;;;;;;27.11;40.65;100899.28;5046489;28;20049;-33
2023/06/19 02:39:24;;;;;;;4.72;2.30;;;;;;;27.11;41.01;100902.00;5047344;28;20103;-33
2023/06/19 02:41:51;;;;;;;2.63;2.03;;;;;;;27.10;40.89;100912.06;5046381;28;20119;-33
2023/06/19 02:44:17;;;;;;;2.00;1.55;;;;;;;27.10;41.01;100914.78;5045807;28;20046;-33
2023/06/19 02:46:44;;;;;;;5.50;2.25;;;;;;;27.10;40.92;100917.50;5045525;28;20068;-32
2023/06/19 02:49:10;;;;;;;3.25;2.00;;;;;;;27.08;40.91;100919.53;5041524;28;20115;-33
2023/06/19 02:51:37;;;;;;;4.57;2.03;;;;;;;27.07;40.93;100920.59;5072467;28;20132;-33
2023/06/19 02:54:07;;;;;;;2.25;1.85;;;;;;;27.07;41.03;100920.59;5045760;28;20057;-32
2023/06/19 02:56:34;;;;;;;3.05;1.73;;;;;;;27.06;40.71;100919.78;5041060;28;20049;-33
2023/06/19 02:59:00;;;;;;;2.65;1.80;;;;;;;27.06;40.87;100924.38;5073053;28;20102;-33
2023/06/19 03:01:27;;;;;;;2.30;2.10;;;;;;;27.05;41.35;100922.69;5045155;28;20459;-33
2023/06/19 03:03:54;;;;;;;3.67;2.33;;;;;;;27.05;41.17;100928.13;5041517;28;20053;-33
2023/06/19 03:06:20;;;;;;;2.28;2.08;;;;;;;27.05;41.03;100922.69;5042735;28;20130;-33
2023/06/19 03:08:47;;;;;;;2.05;1.85;;;;;;;27.03;41.45;100925.63;5043578;28;20053;-32
2023/06/19 03:11:13;;;;;;;2.88;2.13;;;;;;;27.03;41.40;100938.41;5040602;28;20139;-31
2023/06/19 03:13:54;;;;;;;3.30;1.80;;;;;;;27.01;41.77;100935.03;5042060;28;20061;-32
2023/06/19 03:16:21;;;;;;;4.47;3.20;;;;;;;27.01;41.22;100935.88;5039214;28;20072;-33
2023/06/19 03:18:48;;;;;;;7.20;3.38;;;;;;;27.00;41.71;100942.38;5036558;28;20080;-33
2023/06/19 03:21:19;;;;;;;5.15;2.80;;;;;;;26.99;41.71;100943.41;5034200;28;20056;-32
2023/06/19 03:23:46;;;;;;;3.13;2.40;;;;;;;26.98;41.90;100943.63;5034967;28;20087;-33
2023/06/19 03:26:13;;;;;;;3.30;2.33;;;;;;;26.97;42.00;100937.34;5040648;28;20240;-33
2023/06/19 03:28:39;;;;;;;2.72;2.10;;;;;;;26.97;42.07;100950.94;5040636;28;20107;-33
2023/06/19 03:31:06;;;;;;;3.92;2.53;;;;;;;26.96;41.78;100940.28;5039034;28;20123;-33
2023/06/19 03:33:33;;;;;;;2.45;1.90;;;;;;;26.95;42.09;100947.59;5037873;28;20100;-33
2023/06/19 03:35:59;;;;;;;3.05;2.38;;;;;;;26.96;41.95;100952.00;5036815;28;20148;-34
2023/06/19 03:38:26;;;;;;;2.88;1.92;;;;;;;26.96;42.37;100956.59;5034291;28;20201;-30
2023/06/19 03:40:52;;;;;;;3.38;2.60;;;;;;;26.95;42.20;100955.78;5036243;28;20053;-33
2023/06/19 03:43:19;;;;;;;3.25;2.40;;;;;;;26.93;42.16;100960.56;5040649;28;20496;-31
2023/06/19 03:45:46;;;;;;;2.95;1.90;;;;;;;26.92;42.43;100960.78;5036560;28;20048;-31
2023/06/19 03:48:12;;;;;;;3.90;2.78;;;;;;;26.92;42.56;100968.94;5041587;28;20045;-32
2023/06/19 03:50:39;;;;;;;2.95;2.20;;;;;;;26.92;42.41;100972.50;5041117;28;20089;-31
2023/06/19 03:53:06;;;;;;;2.58;2.10;;;;;;;26.91;42.71;100989.88;5043444;28;20036;-32
2023/06/19 03:55:32;;;;;;;3.17;2.03;;;;;;;26.91;42.41;100981.72;5038602;28;20511;-32
2023/06/19 03:57:59;;;;;;;3.25;2.15;;;;;;;26.91;42.63;100989.03;5040654;28;20092;-31
2023/06/19 04:00:25;;;;;;;4.32;2.65;;;;;;;26.90;42.70;100995.53;5040400;28;20136;-32
2023/06/19 04:02:52;;;;;;;3.22;2.45;;;;;;;26.88;42.58;100998.44;5040307;28;20244;-32
2023/06/19 04:05:19;;;;;;;4.78;2.55;;;;;;;26.89;42.50;101008.28;5041044;28;20340;-31
2023/06/19 04:07:47;;;;;;;2.85;2.55;;;;;;;26.88;42.77;101003.88;5041944;28;20048;-31
2023/06/19 04:10:14;;;;;;;2.50;2.30;;;;;;;26.87;42.93;101009.56;5040622;28;20052;-32
2023/06/19 04:12:40;;;;;;;3.22;2.35;;;;;;;26.86;42.89;101014.16;5041021;28;20080;-30
2023/06/19 04:15:08;;;;;;;4.68;2.08;;;;;;;26.86;42.54;101016.88;5041643;28;20087;-31
2023/06/19 04:17:34;;;;;;;2.35;2.05;;;;;;;26.86;42.62;101022.31;5032265;28;20057;-31
2023/06/19 04:20:04;;;;;;;2.83;2.10;;;;;;;26.86;42.90;101025.03;5043978;28;20503;-31
2023/06/19 04:22:31;;;;;;;4.05;2.38;;;;;;;26.86;43.20;101021.47;5041138;28;20080;-33
2023/06/19 04:24:57;;;;;;;2.50;2.13;;;;;;;26.86;43.20;101029.66;5040679;28;20518;-33
2023/06/19 04:27:24;;;;;;;3.40;2.05;;;;;;;26.87;43.05;101029.44;5039900;28;20057;-33
2023/06/19 04:29:52;;;;;;;2.50;2.28;;;;;;;26.86;42.64;101048.69;5035982;28;20565;-32
2023/06/19 04:32:19;;;;;;;2.65;1.98;;;;;;;26.85;42.72;101042.38;5039199;28;20057;-33
2023/06/19 04:34:46;;;;;;;3.72;2.45;;;;;;;26.83;43.06;101039.88;5038697;28;20273;-30
2023/06/19 04:37:12;;;;;;;2.50;1.98;;;;;;;26.84;42.77;101051.59;5039291;28;20140;-31
2023/06/19 04:39:39;;;;;;;3.65;2.40;;;;;;;26.83;43.09;101061.63;5039039;28;20108;-30
2023/06/19 04:42:06;;;;;;;3.25;2.22;;;;;;;26.83;43.20;101060.81;5038062;28;20048;-31
2023/06/19 04:44:33;;;;;;;3.30;2.25;;;;;;;26.82;42.89;101061.84;5038866;28;20476;-30
2023/06/19 04:47:03;;;;;;;2.42;2.10;;;;;;;26.81;43.35;101063.75;5038293;28;20041;-31
2023/06/19 04:49:30;;;;;;;2.63;2.25;;;;;;;26.81;43.18;101062.88;5037301;28;20057;-31
2023/06/19 04:51:57;;;;;;;2.67;2.20;;;;;;;26.80;43.21;101070.19;5034217;28;20072;-31
2023/06/19 04:54:25;;;;;;;4.43;2.13;;;;;;;26.80;43.01;101077.53;5039363;28;20119;-30
2023/06/19 04:56:53;;;;;;;2.00;1.80;;;;;;;26.79;43.16;101084.03;5033118;28;20220;-31
2023/06/19 04:59:20;;;;;;;4.03;1.83;;;;;;;26.79;43.08;101084.84;5036177;28;20060;-31
2023/06/19 05:01:46;;;;;;;3.78;2.30;;;;;;;26.79;43.04;101075.84;5031224;28;20132;-32
2023/06/19 05:04:13;;;;;;;3.28;1.83;;;;;;;26.78;43.06;101085.91;5041385;28;20428;-31
2023/06/19 05:06:40;;;;;;;3.03;2.13;;;;;;;26.78;42.96;101091.34;5049054;28;20045;-31
2023/06/19 05:09:06;;;;;;;2.25;1.90;;;;;;;26.78;43.13;101087.78;5049055;28;20375;-31
2023/06/19 05:11:33;;;;;;;2.22;1.85;;;;;;;26.77;42.96;101089.66;5049259;28;20087;-31
2023/06/19 05:14:00;;;;;;;2.90;2.08;;;;;;;26.77;43.03;101096.97;5047889;28;20061;-32
2023/06/19 05:16:26;;;;;;;1.80;1.70;;;;;;;26.76;43.00;101090.69;5038277;28;20050;-31
2023/06/19 05:18:53;;;;;;;1.88;1.67;;;;;;;26.77;43.06;101100.53;5033976;28;20053;-31
2023/06/19 05:21:20;;;;;;;2.63;1.83;;;;;;;26.76;42.75;101101.56;5033344;28;20136;-34
2023/06/19 05:23:50;;;;;;;2.42;1.63;;;;;;;26.76;43.13;101115.19;5037751;28;20049;-31
2023/06/19 05:26:17;;;;;;;2.63;1.48;;;;;;;26.76;42.76;101108.91;5037190;28;20081;-32
2023/06/19 05:28:44;;;;;;;2.85;2.03;;;;;;;26.75;42.81;101115.38;5036498;28;20049;-31
2023/06/19 05:31:10;;;;;;;2.17;1.92;;;;;;;26.75;42.92;101107.22;5033163;28;20049;-32
2023/06/19 05:33:37;;;;;;;2.10;1.80;;;;;;;26.74;42.94;101114.56;5034546;28;20088;-33
2023/06/19 05:36:04;;;;;;;1.98;1.70;;;;;;;26.74;42.94;101124.59;5037195;28;20157;-32
2023/06/19 05:38:30;;;;;;;3.58;1.98;;;;;;;26.73;42.85;101121.00;5033684;28;20049;-32
2023/06/19 05:40:58;;;;;;;3.50;2.10;;;;;;;26.72;42.71;101116.63;5035239;28;20353;-32
2023/06/19 05:43:25;;;;;;;2.42;1.92;;;;;;;26.72;42.80;101113.91;5040707;28;20436;-32
2023/06/19 05:45:53;;;;;;;2.78;1.98;;;;;;;26.71;42.79;101128.56;5041467;28;20317;-32
2023/06/19 05:48:20;;;;;;;1.85;1.58;;;;;;;26.71;42.75;101138.59;5047852;28;20045;-31
2023/06/19 05:50:46;;;;;;;2.60;2.20;;;;;;;26.71;42.71;101133.16;5041629;28;20053;-32
2023/06/19 05:53:13;;;;;;;2.90;2.00;;;;;;;26.71;43.06;101138.59;5042749;28;20095;-32
2023/06/19 05:55:41;;;;;;;2.35;2.08;;;;;;;26.70;42.98;101137.75;5041372;28;20045;-32
2023/06/19 05:58:08;;;;;;;2.30;1.83;;;;;;;26.70;42.66;101139.66;5042379;28;20045;-32
2023/06/19 06:00:35;;;;;;;2.70;1.83;;;;;;;26.70;42.95;101140.47;5042060;28;20057;-33
2023/06/19 06:03:02;;;;;;;2.80;2.10;;;;;;;26.71;42.85;101138.59;5040811;28;20053;-32
2023/06/19 06:05:29;;;;;;;2.35;1.88;;;;;;;26.71;42.84;101146.75;5040634;28;20475;-32
2023/06/19 06:07:55;;;;;;;3.08;2.00;;;;;;;26.72;42.65;101151.16;5039678;28;20495;-31
2023/06/19 06:10:23;;;;;;;3.50;1.65;;;;;;;26.72;42.60;101148.44;5038719;28;20203;-32
2023/06/19 06:12:51;;;;;;;2.92;1.80;;;;;;;26.72;42.71;101146.53;5038136;28;20065;-32
2023/06/19 06:15:17;;;;;;;2.00;1.80;;;;;;;26.72;42.67;101157.41;5037936;28;20716;-32
2023/06/19 06:17:44;;;;;;;3.22;2.20;;;;;;;26.72;42.54;101162.84;5044049;28;20452;-32
2023/06/19 06:20:12;;;;;;;2.40;1.92;;;;;;;26.72;42.60;101162.84;5039584;28;20063;-32
2023/06/19 06:22:40;;;;;;;2.88;2.10;;;;;;;26.72;42.62;101171.00;5037702;28;20079;-32
2023/06/19 06:25:07;;;;;;;2.80;2.38;;;;;;;26.72;42.77;101173.72;5044744;28;20329;-32
2023/06/19 06:27:37;;;;;;;3.08;1.95;;;;;;;26.72;42.60;101181.06;5034596;28;20136;-32
2023/06/19 06:30:04;;;;;;;3.00;2.13;;;;;;;26.72;42.63;101186.50;5041900;28;20386;-32
2023/06/19 06:32:31;;;;;;;2.05;1.67;;;;;;;26.72;42.76;101194.66;5041755;28;20382;-32
2023/06/19 06:34:58;;;;;;;2.00;1.80;;;;;;;26.72;42.61;101195.50;5044569;28;20283;-31
2023/06/19 06:37:25;;;;;;;2.30;1.90;;;;;;;26.73;42.75;101196.31;5047017;28;20053;-31
2023/06/19 06:39:52;;;;;;;3.65;2.20;;;;;;;26.74;42.47;101203.47;5046963;28;20257;-32
2023/06/19 06:42:18;;;;;;;3.05;2.05;;;;;;;26.74;42.76;101203.47;5048443;28;20057;-31
2023/06/19 06:44:45;;;;;;;2.03;1.48;;;;;;;26.76;42.50;101206.81;5047455;28;20476;-31
2023/06/19 06:47:12;;;;;;;2.53;1.58;;;;;;;26.77;42.41;101222.06;5048893;28;20143;-31
2023/06/19 06:49:39;;;;;;;1.95;1.67;;;;;;;26.79;42.67;101217.28;5048845;28;20103;-32
2023/06/19 06:52:06;;;;;;;2.65;1.88;;;;;;;26.78;42.43;101218.34;5047778;28;20049;-32
2023/06/19 06:54:33;;;;;;;2.22;2.03;;;;;;;26.79;42.52;101225.44;5048486;28;20053;-31
2023/06/19 06:57:00;;;;;;;2.67;1.85;;;;;;;26.80;42.58;101233.38;5047099;28;20490;-33
2023/06/19 06:59:27;;;;;;;2.90;1.95;;;;;;;26.81;42.51;101236.94;5045858;28;20102;-32
2023/06/19 07:01:54;;;;;;;1.75;1.65;;;;;;;26.82;42.13;101235.94;5048322;28;20053;-31
2023/06/19 07:04:21;;;;;;;2.10;1.80;;;;;;;26.82;42.35;101234.03;5044407;28;20667;-32
2023/06/19 07:06:48;;;;;;;2.15;1.85;;;;;;;26.84;42.40;101242.00;5043403;28;20090;-31
2023/06/19 07:09:15;;;;;;;2.20;1.90;;;;;;;26.84;42.37;101236.53;5045364;28;20053;-31
2023/06/19 07:11:42;;;;;;;4.13;2.45;;;;;;;26.84;42.11;101252.88;5043605;28;20053;-34
2023/06/19 07:14:08;;;;;;;4.43;1.95;;;;;;;26.86;42.70;101260.84;5039882;28;20048;-31
2023/06/19 07:16:35;;;;;;;3.22;2.00;;;;;;;26.86;42.31;101253.53;5037201;28;20068;-31
2023/06/19 07:19:01;;;;;;;3.38;1.73;;;;;;;26.87;42.24;101252.47;5037748;28;20049;-33
2023/06/19 07:21:29;;;;;;;2.42;1.83;;;;;;;26.87;42.17;101263.34;5035246;28;20088;-32
2023/06/19 07:23:57;;;;;;;2.40;2.10;;;;;;;26.89;42.20;101266.69;5036264;28;20049;-32
2023/06/19 07:26:23;;;;;;;2.83;2.00;;;;;;;26.89;42.16;101272.13;5036056;28;20349;-32
2023/06/19 07:28:50;;;;;;;3.40;2.20;;;;;;;26.90;42.45;101264.84;5040079;28;20061;-32
2023/06/19 07:31:17;;;;;;;2.33;1.90;;;;;;;26.91;42.21;101261.06;5039405;28;20049;-32
2023/06/19 07:33:43;;;;;;;3.03;2.00;;;;;;;26.91;42.19;101261.91;5035423;28;20045;-32
2023/06/19 07:36:13;;;;;;;3.08;2.10;;;;;;;26.93;42.11;101267.13;5040957;28;20057;-32
2023/06/19 07:38:44;;;;;;;2.35;1.90;;;;;;;26.94;41.87;101272.38;5047709;28;20056;-32
2023/06/19 07:41:11;;;;;;;2.03;1.83;;;;;;;26.95;42.08;101276.78;5035792;28;20083;-33
2023/06/19 07:43:38;;;;;;;2.70;1.92;;;;;;;26.95;41.93;101279.50;5034455;28;20429;-32
2023/06/19 07:46:05;;;;;;;3.17;2.15;;;;;;;26.97;41.83;101274.69;5039704;28;20057;-32
2023/06/19 07:48:31;;;;;;;2.53;2.10;;;;;;;26.97;41.83;101274.69;5037556;28;20356;-31
2023/06/19 07:50:58;;;;;;;3.10;1.83;;;;;;;26.98;42.03;101276.38;5042135;28;20050;-31
2023/06/19 07:53:24;;;;;;;5.38;1.90;;;;;;;26.99;41.85;101283.50;5036522;28;20041;-32
2023/06/19 07:55:51;;;;;;;2.10;1.90;;;;;;;27.01;41.99;101277.84;5037660;28;20191;-32
2023/06/19 07:58:18;;;;;;;2.47;2.28;;;;;;;27.00;42.17;101284.31;5042036;28;20077;-31
2023/06/19 08:00:44;;;;;;;2.63;1.85;;;;;;;27.02;41.90;101288.53;5046487;28;20132;-31
2023/06/19 08:03:11;;;;;;;3.63;2.05;;;;;;;27.04;41.85;101288.31;5038975;28;20103;-33
2023/06/19 08:05:38;;;;;;;2.25;1.80;;;;;;;27.04;41.67;101288.31;5041967;28;20049;-32
2023/06/19 08:08:05;;;;;;;2.88;2.50;;;;;;;27.06;41.49;101292.53;5038914;28;20048;-31
2023/06/19 08:10:31;;;;;;;2.90;1.98;;;;;;;27.06;41.80;101284.38;5042167;28;20065;-31
2023/06/19 08:12:58;;;;;;;2.90;2.20;;;;;;;27.08;41.32;101284.97;5071458;28;20093;-32
2023/06/19 08:15:25;;;;;;;2.85;2.40;;;;;;;27.09;41.83;101291.25;5038803;28;20080;-32
2023/06/19 08:17:52;;;;;;;3.08;2.15;;;;;;;27.11;41.35;101293.84;5042191;28;20123;-31
2023/06/19 08:20:19;;;;;;;3.28;2.33;;;;;;;27.12;41.49;101299.06;5040457;28;20045;-32
2023/06/19 08:22:46;;;;;;;3.00;2.50;;;;;;;27.13;41.72;101295.28;5042797;28;20064;-31
2023/06/19 08:25:13;;;;;;;3.95;2.70;;;;;;;27.13;41.54;101292.56;5042475;28;20049;-32
2023/06/19 08:27:39;;;;;;;3.72;2.50;;;;;;;27.15;41.22;101304.09;5043504;28;20130;-34
2023/06/19 08:30:07;;;;;;;4.03;2.80;;;;;;;27.15;41.57;101304.09;5042390;28;20389;-32
2023/06/19 08:32:34;;;;;;;3.20;2.75;;;;;;;27.15;41.07;101311.44;5042856;28;20508;-34
2023/06/19 08:35:02;;;;;;;5.88;3.08;;;;;;;27.15;41.43;101312.28;5040015;28;20053;-32
2023/06/19 08:37:29;;;;;;;5.22;2.85;;;;;;;27.15;41.28;101319.59;5041092;28;20140;-32
2023/06/19 08:39:56;;;;;;;4.03;3.10;;;;;;;27.15;41.61;101333.22;5040845;28;20057;-31
2023/06/19 08:42:22;;;;;;;3.45;2.53;;;;;;;27.15;41.25;101333.22;5041518;28;20154;-32
2023/06/19 08:44:49;;;;;;;3.83;3.15;;;;;;;27.14;41.31;101335.09;5037644;28;20058;-32
2023/06/19 08:47:16;;;;;;;6.68;3.90;;;;;;;27.14;41.38;101339.69;5039584;28;20401;-31
2023/06/19 08:49:43;;;;;;;6.10;3.78;;;;;;;27.13;41.78;101330.66;5039249;28;20041;-31
2023/06/19 08:52:10;;;;;;;7.22;4.60;;;;;;;27.14;41.87;101342.41;5038025;28;20057;-32
2023/06/19 08:54:43;;;;;;;5.22;3.80;;;;;;;27.16;41.59;101348.47;5041654;28;20067;-31
2023/06/19 08:57:12;;;;;;;4.95;3.80;;;;;;;27.16;41.11;101343.88;5039905;28;20057;-32
2023/06/19 08:59:39;;;;;;;5.95;3.85;;;;;;;27.16;41.12;101343.03;5039499;28;20080;-32
2023/06/19 09:02:06;;;;;;;7.35;5.13;;;;;;;27.17;41.41;101340.09;5041555;28;20045;-32
2023/06/19 09:04:33;;;;;;;7.95;4.15;;;;;;;27.18;41.13;101330.91;5037285;28;20049;-32
2023/06/19 09:07:03;;;;;;;7.22;4.07;;;;;;;27.19;41.07;101343.47;5036926;28;20592;-31
2023/06/19 09:09:32;;;;;;;4.20;3.50;;;;;;;27.21;41.21;101343.25;5039978;28;20056;-31
2023/06/19 09:12:10;;;;;;;5.63;3.90;;;;;;;27.21;41.27;101341.38;5041125;28;20333;-32
2023/06/19 09:14:46;;;;;;;4.63;3.30;;;;;;;27.21;41.59;101341.38;5037150;28;20192;-32
2023/06/19 09:17:21;;;;;;;6.63;4.05;;;;;;;27.23;41.09;101352.09;5030493;28;20340;-32
2023/06/19 09:19:49;;;;;;;8.60;5.93;;;;;;;27.24;41.43;101348.31;5031715;28;20099;-32
2023/06/19 09:22:20;;;;;;;6.43;5.20;;;;;;;27.24;41.12;101351.88;5035956;28;20315;-31
2023/06/19 09:24:47;;;;;;;6.18;4.30;;;;;;;27.24;41.27;101360.03;5039181;28;20070;-31
2023/06/19 09:27:18;;;;;;;6.32;4.22;;;;;;;27.26;41.48;101366.13;5037778;28;20047;-32
2023/06/19 09:29:47;;;;;;;9.93;5.55;;;;;;;27.27;41.25;101375.97;5034167;28;20437;-32
2023/06/19 09:32:22;;;;;;;8.10;5.00;;;;;;;27.29;41.15;101373.03;5037837;28;20053;-31
2023/06/19 09:34:51;;;;;;;6.57;4.45;;;;;;;27.30;41.17;101372.84;5035522;28;20080;-32
2023/06/19 09:37:29;;;;;;;5.82;4.88;;;;;;;27.31;41.48;101382.69;5035416;28;20392;-31
2023/06/19 09:40:02;;;;;;;6.68;4.63;;;;;;;27.33;41.47;101390.63;5034232;28;20048;-31
2023/06/19 09:42:34;;;;;;;9.85;6.18;;;;;;;27.34;41.59;101389.63;5036098;28;20060;-32
2023/06/19 09:45:07;;;;;;;7.15;5.10;;;;;;;27.35;41.14;101385.84;5037118;28;20049;-31
2023/06/19 09:47:47;;;;;;;11.88;7.25;;;;;;;27.35;41.69;101394.00;5037438;28;20046;-33
2023/06/19 09:50:16;;;;;;;7.35;5.20;;;;;;;27.37;41.14;101393.81;5037148;28;20085;-32
2023/06/19 09:52:44;;;;;;;10.95;7.82;;;;;;;27.38;40.97;101407.22;5038785;28;20064;-31
2023/06/19 09:55:13;;;;;;;7.20;5.22;;;;;;;27.37;41.16;101402.81;5038353;28;20136;-32
2023/06/19 09:57:41;;;;;;;5.53;4.32;;;;;;;27.39;41.14;101408.91;5037599;28;20140;-32
2023/06/19 10:00:12;;;;;;;5.10;4.35;;;;;;;27.40;40.99;101415.19;5037821;28;20131;-32
2023/06/19 10:02:41;;;;;;;5.20;4.30;;;;;;;27.42;41.09;101410.34;5038215;28;20085;-32
2023/06/19 10:05:11;;;;;;;6.55;4.55;;;;;;;27.43;40.76;101425.66;5037585;28;20049;-31
2023/06/19 10:07:46;;;;;;;5.60;4.63;;;;;;;27.45;40.85;101420.84;5038911;28;20045;-31
2023/06/19 10:10:24;;;;;;;6.13;4.45;;;;;;;27.45;40.96;101410.78;5036775;28;20041;-33
2023/06/19 10:12:57;;;;;;;5.38;3.95;;;;;;;27.47;40.72;101414.16;5038190;28;20434;-32
2023/06/19 10:15:29;;;;;;;5.75;5.05;;;;;;;27.47;40.89;101411.44;5038808;28;20082;-31
2023/06/19 10:18:03;;;;;;;6.63;4.53;;;;;;;27.49;41.28;101417.50;5037686;28;20348;-31
2023/06/19 10:20:38;;;;;;;10.57;7.85;;;;;;;27.49;40.83;101419.41;5036860;28;20144;-32
2023/06/19 10:23:17;;;;;;;7.43;6.05;;;;;;;27.52;40.71;101416.28;5041326;28;20046;-32
2023/06/19 10:25:47;;;;;;;6.00;5.00;;;;;;;27.52;41.11;101413.56;5037190;28;20421;-32
2023/06/19 10:28:19;;;;;;;7.15;5.47;;;;;;;27.52;40.58;101422.56;5035904;28;20045;-32
2023/06/19 10:31:11;;;;;;;8.73;5.45;;;;;;;27.53;40.78;101410.63;5041417;28;20092;-32
2023/06/19 10:33:41;;;;;;;6.40;4.95;;;;;;;27.56;41.24;101410.22;5037610;28;20081;-32
2023/06/19 10:36:19;;;;;;;7.30;4.95;;;;;;;27.58;40.62;101414.63;5041473;28;20152;-32
2023/06/19 10:38:49;;;;;;;7.18;5.00;;;;;;;27.60;40.60;101404.38;5041720;28;20077;-31
2023/06/19 10:41:22;;;;;;;6.75;5.40;;;;;;;27.61;41.08;101412.31;5039862;28;20096;-32
2023/06/19 10:44:00;;;;;;;6.40;5.07;;;;;;;27.61;40.82;101406.88;5038505;28;20053;-32
2023/06/19 10:46:32;;;;;;;6.30;4.78;;;;;;;27.64;40.85;101409.19;5042907;28;20055;-32
2023/06/19 10:49:04;;;;;;;7.93;5.93;;;;;;;27.65;40.59;101404.59;5079277;28;20171;-31
2023/06/19 10:51:34;;;;;;;6.32;4.88;;;;;;;27.65;40.52;101408.16;5045531;28;20434;-31
2023/06/19 10:54:01;;;;;;;6.43;4.97;;;;;;;27.68;40.79;101409.63;5040244;28;20053;-32
2023/06/19 10:56:28;;;;;;;8.30;6.13;;;;;;;27.69;40.53;101408.59;5043245;28;20131;-32
2023/06/19 10:59:05;;;;;;;7.80;5.35;;;;;;;27.69;40.74;101401.25;5050436;28;20044;-33
2023/06/19 11:01:33;;;;;;;8.25;5.88;;;;;;;27.71;40.86;101406.50;5049577;28;20048;-32
2023/06/19 11:04:03;;;;;;;6.28;5.18;;;;;;;27.71;40.88;101409.25;5045009;28;20099;-31
2023/06/19 11:06:30;;;;;;;5.97;5.15;;;;;;;27.71;40.33;101396.47;5047618;28;20437;-32
2023/06/19 11:08:57;;;;;;;7.32;5.05;;;;;;;27.73;40.68;101404.41;5073043;28;20049;-32
2023/06/19 11:11:44;;;;;;;6.72;5.00;;;;;;;27.72;40.83;101405.47;5047363;28;20388;-32
2023/06/19 11:14:13;;;;;;;6.65;5.20;;;;;;;27.73;40.35;101398.97;5041118;28;20061;-32
2023/06/19 11:16:42;;;;;;;6.53;4.65;;;;;;;27.74;40.82;101393.34;5036481;28;20388;-32
2023/06/19 11:19:15;;;;;;;7.00;5.40;;;;;;;27.76;40.59;101398.59;5033438;28;20501;-31
2023/06/19 11:21:46;;;;;;;6.27;5.17;;;;;;;27.76;40.67;101401.31;5034988;28;20441;-32
2023/06/19 11:24:14;;;;;;;6.88;4.65;;;;;;;27.77;40.59;101398.38;5038018;28;20085;-31
2023/06/19 11:26:49;;;;;;;6.55;5.20;;;;;;;27.79;40.48;101398.19;5042419;28;20053;-32
2023/06/19 11:29:24;;;;;;;6.03;5.25;;;;;;;27.80;40.87;101397.13;5034945;28;20060;-32